Terminal Aerodrome Forecast
Issued by NWS Knoxville/Tri Cities, TN

Home | Current Version | Previous Version | Text Only | Print | Product List | Glossary On
Versions: 1 2 3 4 5 6 7 8 9 10 11 12 13 14 15 16 17 18 19 20 21 22 23 24 25 26 27 28 29 30 31
000
FTUS44 KMRX 280524
TAFTRI
TAF
KTRI 280524Z 2806/2906 33008KT P6SM -SN OVC035
     FM281000 30010KT P6SM BKN035
     FM281600 29008KT P6SM SKC
     FM290000 00000KT P6SM SKC=

USA.gov is the U.S. government's official web portal to all federal, state and local government web resources and services.